AFR610 TFFF-FACT
Flight info
| Callsign | AFR610 |
|---|---|
| Flight time | N/A |
| Altitude | 31000 |
| Route | SESPO2R SESPO DCT KANUN UL695 BISUK DCT 08N041W/N0504F330 DCT ARUSI UL695 EGIMI UL375 ISUPA/N0496F350 UL375 SISET DCT 16S008W 20S004W 23S000E 27S004E/N0488F370 30S009E DCT OKDOG UQ15 APKIN UQ37 ASPIK ASPIK1B |
| Aircraft | B77W/H-SDE1E2E3FGHIJ2J3J4J5M1RWXY/LB1D1 |
Departure
| Time | 2026-04-23 11:01 |
|---|---|
| Airport | Martinique Aimé Césaire International Airport (TFFF) |
Arrival
| Time | N/A |
|---|---|
| Airport | Cape Town International Airport (FACT) |
| Time | Latitude | Longitude | Altitude | Speed | Heading |
|---|---|---|---|---|---|
| 2026-04-23 10:08 | 14.59464 | -61.00112 | 26 ft | 0 kts | 32° |
| 2026-04-23 10:51 | 14.59463 | -61.00112 | -1 ft | 1 kts | 32° |
| 2026-04-23 10:51 | 14.59458 | -61.00115 | 27 ft | 4 kts | 34° |
| 2026-04-23 10:51 | 14.59431 | -61.00149 | 27 ft | 4 kts | 78° |
| 2026-04-23 10:51 | 14.59430 | -61.00176 | 26 ft | 4 kts | 107° |
| 2026-04-23 10:52 | 14.59441 | -61.00201 | 28 ft | 4 kts | 125° |
| 2026-04-23 10:52 | 14.59447 | -61.00209 | 28 ft | 2 kts | 128° |
| 2026-04-23 10:55 | 14.59447 | -61.00208 | 28 ft | 0 kts | 128° |
| 2026-04-23 10:56 | 14.59290 | -61.00040 | 27 ft | 16 kts | 166° |
| 2026-04-23 10:56 | 14.59212 | -61.00025 | 28 ft | 4 kts | 169° |
| 2026-04-23 10:56 | 14.59182 | -61.00027 | 26 ft | 5 kts | 195° |
| 2026-04-23 10:56 | 14.59171 | -61.00033 | 25 ft | 5 kts | 208° |
| 2026-04-23 10:57 | 14.59139 | -61.00115 | 24 ft | 9 kts | 258° |
| 2026-04-23 10:57 | 14.59126 | -61.00187 | 23 ft | 11 kts | 260° |
| 2026-04-23 10:57 | 14.59114 | -61.00267 | 21 ft | 12 kts | 261° |
| 2026-04-23 10:57 | 14.59098 | -61.00352 | 21 ft | 13 kts | 257° |
| 2026-04-23 10:58 | 14.59085 | -61.00412 | 20 ft | 14 kts | 259° |
| 2026-04-23 10:58 | 14.59065 | -61.00569 | 20 ft | 20 kts | 261° |
| 2026-04-23 10:58 | 14.59035 | -61.00725 | 27 ft | 24 kts | 257° |
| 2026-04-23 10:58 | 14.59003 | -61.00911 | 27 ft | 29 kts | 261° |
| 2026-04-23 10:59 | 14.58963 | -61.01134 | 29 ft | 34 kts | 256° |
| 2026-04-23 10:59 | 14.58929 | -61.01366 | 28 ft | 32 kts | 261° |
| 2026-04-23 10:59 | 14.58892 | -61.01584 | 25 ft | 30 kts | 259° |
| 2026-04-23 11:00 | 14.58877 | -61.01729 | 27 ft | 12 kts | 108° |
| 2026-04-23 11:00 | 14.58878 | -61.01670 | 27 ft | 16 kts | 82° |
| 2026-04-23 11:01 | 14.59442 | -60.98463 | 532 ft | 219 kts | 80° |
| 2026-04-23 11:01 | 14.59706 | -60.96868 | 1455 ft | 230 kts | 79° |
| 2026-04-23 11:01 | 14.59976 | -60.95204 | 2484 ft | 238 kts | 81° |
| 2026-04-23 11:02 | 14.60236 | -60.93509 | 3312 ft | 238 kts | 81° |
| 2026-04-23 11:02 | 14.60499 | -60.91799 | 3777 ft | 245 kts | 78° |
| 2026-04-23 11:02 | 14.61088 | -60.90103 | 3967 ft | 262 kts | 58° |
| 2026-04-23 11:02 | 14.62262 | -60.88588 | 4247 ft | 273 kts | 44° |
| 2026-04-23 11:03 | 14.63637 | -60.87272 | 5099 ft | 266 kts | 40° |
| 2026-04-23 11:03 | 14.65080 | -60.86071 | 5702 ft | 270 kts | 36° |
| 2026-04-23 11:03 | 14.66641 | -60.84937 | 5936 ft | 287 kts | 34° |
| 2026-04-23 11:03 | 14.68315 | -60.83745 | 6401 ft | 294 kts | 35° |
| 2026-04-23 11:04 | 14.69972 | -60.82498 | 7037 ft | 295 kts | 36° |
| 2026-04-23 11:04 | 14.71627 | -60.81232 | 7612 ft | 298 kts | 36° |
| 2026-04-23 11:04 | 14.73301 | -60.79949 | 8181 ft | 302 kts | 36° |
| 2026-04-23 11:04 | 14.74996 | -60.78652 | 8743 ft | 305 kts | 36° |
| 2026-04-23 11:05 | 14.76711 | -60.77343 | 9311 ft | 308 kts | 36° |
| 2026-04-23 11:05 | 14.78444 | -60.76021 | 9878 ft | 311 kts | 36° |
| 2026-04-23 11:05 | 14.80202 | -60.74682 | 10332 ft | 318 kts | 36° |
| 2026-04-23 11:05 | 14.82040 | -60.73284 | 10455 ft | 338 kts | 36° |
| 2026-04-23 11:06 | 14.86028 | -60.70251 | 10766 ft | 374 kts | 36° |
| 2026-04-23 11:06 | 14.88158 | -60.68631 | 11070 ft | 386 kts | 36° |
| 2026-04-23 11:06 | 14.90341 | -60.66969 | 11531 ft | 392 kts | 36° |
| 2026-04-23 11:07 | 14.91801 | -60.65857 | 11910 ft | 395 kts | 36° |